sensor_id;sensor_type;location;lat;lon;timestamp;P1;durP1;ratioP1;P2;durP2;ratioP2
21601;SDS011;10963;50.934;4.668;2023-07-20T00:01:52;5.03;;;2.50;;
21601;SDS011;10963;50.934;4.668;2023-07-20T00:04:17;10.43;;;2.90;;
21601;SDS011;10963;50.934;4.668;2023-07-20T00:06:46;3.37;;;2.70;;
21601;SDS011;10963;50.934;4.668;2023-07-20T00:09:11;6.63;;;3.27;;
21601;SDS011;10963;50.934;4.668;2023-07-20T00:11:37;9.30;;;3.30;;
21601;SDS011;10963;50.934;4.668;2023-07-20T00:14:09;6.17;;;3.10;;
21601;SDS011;10963;50.934;4.668;2023-07-20T00:16:34;8.03;;;3.07;;
21601;SDS011;10963;50.934;4.668;2023-07-20T00:19:02;4.87;;;2.47;;
21601;SDS011;10963;50.934;4.668;2023-07-20T00:21:29;6.93;;;3.37;;
21601;SDS011;10963;50.934;4.668;2023-07-20T00:24:00;6.13;;;3.10;;
21601;SDS011;10963;50.934;4.668;2023-07-20T00:26:25;5.07;;;2.67;;
21601;SDS011;10963;50.934;4.668;2023-07-20T00:28:51;5.93;;;2.70;;
21601;SDS011;10963;50.934;4.668;2023-07-20T00:31:17;3.20;;;2.47;;
21601;SDS011;10963;50.934;4.668;2023-07-20T00:33:43;7.03;;;2.77;;
21601;SDS011;10963;50.934;4.668;2023-07-20T00:36:11;5.90;;;2.97;;
21601;SDS011;10963;50.934;4.668;2023-07-20T00:38:36;5.57;;;3.10;;
21601;SDS011;10963;50.934;4.668;2023-07-20T00:41:05;5.87;;;3.10;;
21601;SDS011;10963;50.934;4.668;2023-07-20T00:43:30;6.37;;;2.70;;
21601;SDS011;10963;50.934;4.668;2023-07-20T00:45:56;6.00;;;3.03;;
21601;SDS011;10963;50.934;4.668;2023-07-20T00:48:22;5.00;;;2.60;;
21601;SDS011;10963;50.934;4.668;2023-07-20T00:50:48;5.13;;;2.90;;
21601;SDS011;10963;50.934;4.668;2023-07-20T00:53:17;6.47;;;3.00;;
21601;SDS011;10963;50.934;4.668;2023-07-20T00:55:43;6.63;;;3.00;;
21601;SDS011;10963;50.934;4.668;2023-07-20T00:58:09;8.87;;;3.30;;
21601;SDS011;10963;50.934;4.668;2023-07-20T01:00:35;10.23;;;3.17;;
21601;SDS011;10963;50.934;4.668;2023-07-20T01:03:06;7.70;;;3.50;;
21601;SDS011;10963;50.934;4.668;2023-07-20T01:05:51;10.17;;;3.40;;
21601;SDS011;10963;50.934;4.668;2023-07-20T01:11:12;9.43;;;3.33;;
21601;SDS011;10963;50.934;4.668;2023-07-20T01:13:45;6.80;;;3.20;;
21601;SDS011;10963;50.934;4.668;2023-07-20T01:16:16;7.20;;;3.50;;
21601;SDS011;10963;50.934;4.668;2023-07-20T01:18:41;6.37;;;3.30;;
21601;SDS011;10963;50.934;4.668;2023-07-20T01:21:09;12.93;;;3.70;;
21601;SDS011;10963;50.934;4.668;2023-07-20T01:31:52;8.13;;;3.20;;
21601;SDS011;10963;50.934;4.668;2023-07-20T01:34:25;8.10;;;4.07;;
21601;SDS011;10963;50.934;4.668;2023-07-20T01:36:54;11.80;;;4.50;;
21601;SDS011;10963;50.934;4.668;2023-07-20T01:39:23;15.60;;;4.30;;
21601;SDS011;10963;50.934;4.668;2023-07-20T01:41:51;12.17;;;4.17;;
21601;SDS011;10963;50.934;4.668;2023-07-20T01:44:17;6.73;;;3.70;;
21601;SDS011;10963;50.934;4.668;2023-07-20T01:46:46;10.33;;;3.63;;
21601;SDS011;10963;50.934;4.668;2023-07-20T01:49:11;9.97;;;3.80;;
21601;SDS011;10963;50.934;4.668;2023-07-20T01:51:42;10.53;;;4.27;;
21601;SDS011;10963;50.934;4.668;2023-07-20T01:54:08;13.07;;;4.10;;
21601;SDS011;10963;50.934;4.668;2023-07-20T01:56:34;8.70;;;3.83;;
21601;SDS011;10963;50.934;4.668;2023-07-20T01:59:00;9.33;;;3.30;;
21601;SDS011;10963;50.934;4.668;2023-07-20T02:01:25;15.20;;;4.50;;
21601;SDS011;10963;50.934;4.668;2023-07-20T02:03:53;11.70;;;4.03;;
21601;SDS011;10963;50.934;4.668;2023-07-20T02:06:19;10.63;;;4.00;;
21601;SDS011;10963;50.934;4.668;2023-07-20T02:08:45;8.33;;;3.83;;
21601;SDS011;10963;50.934;4.668;2023-07-20T02:11:11;8.70;;;4.07;;
21601;SDS011;10963;50.934;4.668;2023-07-20T02:13:36;8.37;;;4.07;;
21601;SDS011;10963;50.934;4.668;2023-07-20T02:16:02;14.83;;;5.63;;
21601;SDS011;10963;50.934;4.668;2023-07-20T02:18:30;10.73;;;4.70;;
21601;SDS011;10963;50.934;4.668;2023-07-20T02:20:56;12.40;;;5.10;;
21601;SDS011;10963;50.934;4.668;2023-07-20T02:23:24;13.17;;;4.70;;
21601;SDS011;10963;50.934;4.668;2023-07-20T02:25:49;12.10;;;4.13;;
21601;SDS011;10963;50.934;4.668;2023-07-20T02:28:17;14.67;;;5.10;;
21601;SDS011;10963;50.934;4.668;2023-07-20T02:30:43;21.17;;;5.77;;
21601;SDS011;10963;50.934;4.668;2023-07-20T02:33:09;18.03;;;4.67;;
21601;SDS011;10963;50.934;4.668;2023-07-20T02:35:37;10.80;;;4.60;;
21601;SDS011;10963;50.934;4.668;2023-07-20T02:38:05;10.70;;;4.57;;
21601;SDS011;10963;50.934;4.668;2023-07-20T02:40:32;12.97;;;5.43;;
21601;SDS011;10963;50.934;4.668;2023-07-20T02:42:57;21.03;;;5.30;;
21601;SDS011;10963;50.934;4.668;2023-07-20T02:45:23;13.63;;;5.00;;
21601;SDS011;10963;50.934;4.668;2023-07-20T02:47:49;18.20;;;5.43;;
21601;SDS011;10963;50.934;4.668;2023-07-20T02:50:17;15.60;;;5.37;;
21601;SDS011;10963;50.934;4.668;2023-07-20T02:52:45;15.00;;;5.07;;
21601;SDS011;10963;50.934;4.668;2023-07-20T02:55:15;11.83;;;5.53;;
21601;SDS011;10963;50.934;4.668;2023-07-20T02:57:42;17.40;;;5.27;;
21601;SDS011;10963;50.934;4.668;2023-07-20T03:00:07;15.90;;;5.97;;
21601;SDS011;10963;50.934;4.668;2023-07-20T03:02:34;19.97;;;6.60;;
21601;SDS011;10963;50.934;4.668;2023-07-20T03:05:02;16.33;;;6.07;;
21601;SDS011;10963;50.934;4.668;2023-07-20T03:07:33;15.67;;;6.20;;
21601;SDS011;10963;50.934;4.668;2023-07-20T03:10:01;17.57;;;6.40;;
21601;SDS011;10963;50.934;4.668;2023-07-20T03:12:32;15.20;;;5.60;;
21601;SDS011;10963;50.934;4.668;2023-07-20T03:15:03;18.17;;;5.53;;
21601;SDS011;10963;50.934;4.668;2023-07-20T03:17:30;15.30;;;6.10;;
21601;SDS011;10963;50.934;4.668;2023-07-20T03:19:55;17.80;;;6.43;;
21601;SDS011;10963;50.934;4.668;2023-07-20T03:22:21;19.13;;;5.73;;
21601;SDS011;10963;50.934;4.668;2023-07-20T03:24:49;19.83;;;5.87;;
21601;SDS011;10963;50.934;4.668;2023-07-20T03:27:17;20.40;;;7.07;;
21601;SDS011;10963;50.934;4.668;2023-07-20T03:29:46;15.27;;;5.90;;
21601;SDS011;10963;50.934;4.668;2023-07-20T03:32:14;17.20;;;5.80;;
21601;SDS011;10963;50.934;4.668;2023-07-20T03:34:40;17.57;;;6.57;;
21601;SDS011;10963;50.934;4.668;2023-07-20T03:37:05;17.17;;;5.60;;
21601;SDS011;10963;50.934;4.668;2023-07-20T03:39:31;19.17;;;5.73;;
21601;SDS011;10963;50.934;4.668;2023-07-20T03:41:57;16.43;;;5.50;;
21601;SDS011;10963;50.934;4.668;2023-07-20T03:44:24;19.10;;;5.70;;
21601;SDS011;10963;50.934;4.668;2023-07-20T03:46:52;16.20;;;5.67;;
21601;SDS011;10963;50.934;4.668;2023-07-20T03:49:20;15.53;;;6.17;;
21601;SDS011;10963;50.934;4.668;2023-07-20T03:51:45;19.30;;;5.33;;
21601;SDS011;10963;50.934;4.668;2023-07-20T03:54:11;16.80;;;6.97;;
21601;SDS011;10963;50.934;4.668;2023-07-20T03:56:39;12.77;;;6.13;;
21601;SDS011;10963;50.934;4.668;2023-07-20T03:59:05;15.53;;;7.00;;
21601;SDS011;10963;50.934;4.668;2023-07-20T04:01:31;23.70;;;7.20;;
21601;SDS011;10963;50.934;4.668;2023-07-20T04:04:01;17.23;;;7.47;;
21601;SDS011;10963;50.934;4.668;2023-07-20T04:06:29;13.03;;;6.13;;
21601;SDS011;10963;50.934;4.668;2023-07-20T04:08:57;15.77;;;7.20;;
21601;SDS011;10963;50.934;4.668;2023-07-20T04:11:25;13.23;;;6.30;;
21601;SDS011;10963;50.934;4.668;2023-07-20T04:13:53;12.17;;;6.80;;
21601;SDS011;10963;50.934;4.668;2023-07-20T04:16:21;16.37;;;7.03;;
21601;SDS011;10963;50.934;4.668;2023-07-20T04:18:47;14.07;;;6.97;;
21601;SDS011;10963;50.934;4.668;2023-07-20T04:21:12;16.00;;;7.20;;
21601;SDS011;10963;50.934;4.668;2023-07-20T04:23:38;16.90;;;8.17;;
21601;SDS011;10963;50.934;4.668;2023-07-20T04:26:09;15.50;;;7.23;;
21601;SDS011;10963;50.934;4.668;2023-07-20T04:28:42;17.07;;;7.63;;
21601;SDS011;10963;50.934;4.668;2023-07-20T04:31:14;17.97;;;7.47;;
21601;SDS011;10963;50.934;4.668;2023-07-20T04:33:45;24.17;;;7.20;;
21601;SDS011;10963;50.934;4.668;2023-07-20T04:36:10;20.93;;;8.27;;
21601;SDS011;10963;50.934;4.668;2023-07-20T04:38:39;18.20;;;7.70;;
21601;SDS011;10963;50.934;4.668;2023-07-20T04:41:04;12.70;;;7.93;;
21601;SDS011;10963;50.934;4.668;2023-07-20T04:43:30;18.57;;;8.17;;
21601;SDS011;10963;50.934;4.668;2023-07-20T04:45:56;17.43;;;8.30;;
21601;SDS011;10963;50.934;4.668;2023-07-20T04:48:21;18.90;;;8.73;;
21601;SDS011;10963;50.934;4.668;2023-07-20T04:50:49;20.03;;;8.83;;
21601;SDS011;10963;50.934;4.668;2023-07-20T04:53:15;19.77;;;8.63;;
21601;SDS011;10963;50.934;4.668;2023-07-20T04:55:46;18.10;;;7.83;;
21601;SDS011;10963;50.934;4.668;2023-07-20T04:58:16;16.73;;;8.77;;
21601;SDS011;10963;50.934;4.668;2023-07-20T05:00:43;23.10;;;9.60;;
21601;SDS011;10963;50.934;4.668;2023-07-20T05:03:09;17.53;;;8.80;;
21601;SDS011;10963;50.934;4.668;2023-07-20T05:05:35;17.40;;;8.27;;
21601;SDS011;10963;50.934;4.668;2023-07-20T05:08:08;16.57;;;8.77;;
21601;SDS011;10963;50.934;4.668;2023-07-20T05:10:41;17.63;;;8.87;;
21601;SDS011;10963;50.934;4.668;2023-07-20T05:13:09;21.30;;;9.57;;
21601;SDS011;10963;50.934;4.668;2023-07-20T05:15:37;19.33;;;8.70;;
21601;SDS011;10963;50.934;4.668;2023-07-20T05:18:02;17.57;;;8.77;;
21601;SDS011;10963;50.934;4.668;2023-07-20T05:20:31;14.93;;;8.87;;
21601;SDS011;10963;50.934;4.668;2023-07-20T05:22:58;26.13;;;9.20;;
21601;SDS011;10963;50.934;4.668;2023-07-20T05:25:24;17.07;;;8.40;;
21601;SDS011;10963;50.934;4.668;2023-07-20T05:27:50;17.93;;;8.87;;
21601;SDS011;10963;50.934;4.668;2023-07-20T05:30:17;20.20;;;9.80;;
21601;SDS011;10963;50.934;4.668;2023-07-20T05:32:44;20.67;;;9.53;;
21601;SDS011;10963;50.934;4.668;2023-07-20T05:35:16;24.83;;;10.37;;
21601;SDS011;10963;50.934;4.668;2023-07-20T05:37:45;22.17;;;10.07;;
21601;SDS011;10963;50.934;4.668;2023-07-20T05:40:11;17.83;;;9.97;;
21601;SDS011;10963;50.934;4.668;2023-07-20T05:42:40;20.70;;;9.40;;
21601;SDS011;10963;50.934;4.668;2023-07-20T05:45:06;17.87;;;9.07;;
21601;SDS011;10963;50.934;4.668;2023-07-20T05:47:32;18.67;;;9.47;;
21601;SDS011;10963;50.934;4.668;2023-07-20T05:50:00;19.87;;;9.30;;
21601;SDS011;10963;50.934;4.668;2023-07-20T05:52:26;20.77;;;9.83;;
21601;SDS011;10963;50.934;4.668;2023-07-20T05:54:51;21.07;;;10.03;;
21601;SDS011;10963;50.934;4.668;2023-07-20T05:57:20;20.43;;;10.43;;
21601;SDS011;10963;50.934;4.668;2023-07-20T05:59:46;19.60;;;10.10;;
21601;SDS011;10963;50.934;4.668;2023-07-20T06:02:13;22.13;;;10.30;;
21601;SDS011;10963;50.934;4.668;2023-07-20T06:04:39;17.83;;;10.27;;
21601;SDS011;10963;50.934;4.668;2023-07-20T06:07:05;20.07;;;10.13;;
21601;SDS011;10963;50.934;4.668;2023-07-20T06:09:33;18.27;;;10.60;;
21601;SDS011;10963;50.934;4.668;2023-07-20T06:11:59;18.87;;;9.50;;
21601;SDS011;10963;50.934;4.668;2023-07-20T06:14:25;24.17;;;10.47;;
21601;SDS011;10963;50.934;4.668;2023-07-20T06:16:51;17.17;;;11.10;;
21601;SDS011;10963;50.934;4.668;2023-07-20T06:19:17;24.80;;;9.70;;
21601;SDS011;10963;50.934;4.668;2023-07-20T06:21:43;20.53;;;10.07;;
21601;SDS011;10963;50.934;4.668;2023-07-20T06:24:11;19.20;;;10.40;;
21601;SDS011;10963;50.934;4.668;2023-07-20T06:26:37;20.53;;;10.10;;
21601;SDS011;10963;50.934;4.668;2023-07-20T06:29:05;17.47;;;10.30;;
21601;SDS011;10963;50.934;4.668;2023-07-20T06:31:39;21.63;;;9.80;;
21601;SDS011;10963;50.934;4.668;2023-07-20T06:34:05;19.00;;;9.67;;
21601;SDS011;10963;50.934;4.668;2023-07-20T06:36:32;17.40;;;10.43;;
21601;SDS011;10963;50.934;4.668;2023-07-20T06:38:58;17.40;;;11.00;;
21601;SDS011;10963;50.934;4.668;2023-07-20T06:41:27;19.67;;;11.03;;
21601;SDS011;10963;50.934;4.668;2023-07-20T06:43:56;16.07;;;10.10;;
21601;SDS011;10963;50.934;4.668;2023-07-20T06:46:26;17.07;;;9.83;;
21601;SDS011;10963;50.934;4.668;2023-07-20T06:48:54;16.57;;;9.63;;
21601;SDS011;10963;50.934;4.668;2023-07-20T06:51:22;14.77;;;10.37;;
21601;SDS011;10963;50.934;4.668;2023-07-20T06:53:48;22.07;;;10.87;;
21601;SDS011;10963;50.934;4.668;2023-07-20T06:56:16;16.77;;;10.03;;
21601;SDS011;10963;50.934;4.668;2023-07-20T06:58:41;22.27;;;11.30;;
21601;SDS011;10963;50.934;4.668;2023-07-20T07:01:07;16.13;;;11.07;;
21601;SDS011;10963;50.934;4.668;2023-07-20T07:03:33;19.73;;;11.23;;
21601;SDS011;10963;50.934;4.668;2023-07-20T07:05:59;21.30;;;11.03;;
21601;SDS011;10963;50.934;4.668;2023-07-20T07:08:30;17.43;;;10.60;;
21601;SDS011;10963;50.934;4.668;2023-07-20T07:10:55;18.43;;;10.70;;
21601;SDS011;10963;50.934;4.668;2023-07-20T07:13:21;17.37;;;11.07;;
21601;SDS011;10963;50.934;4.668;2023-07-20T07:15:47;16.03;;;11.10;;
21601;SDS011;10963;50.934;4.668;2023-07-20T07:18:17;18.13;;;11.20;;
21601;SDS011;10963;50.934;4.668;2023-07-20T07:20:49;15.70;;;11.17;;
21601;SDS011;10963;50.934;4.668;2023-07-20T07:23:19;17.40;;;11.30;;
21601;SDS011;10963;50.934;4.668;2023-07-20T07:25:45;15.80;;;10.80;;
21601;SDS011;10963;50.934;4.668;2023-07-20T07:28:14;17.33;;;10.70;;
21601;SDS011;10963;50.934;4.668;2023-07-20T07:30:44;18.37;;;10.07;;
21601;SDS011;10963;50.934;4.668;2023-07-20T07:33:14;12.87;;;9.37;;
21601;SDS011;10963;50.934;4.668;2023-07-20T07:35:40;21.93;;;11.33;;
21601;SDS011;10963;50.934;4.668;2023-07-20T07:38:06;16.77;;;11.07;;
21601;SDS011;10963;50.934;4.668;2023-07-20T07:40:34;13.47;;;9.77;;
21601;SDS011;10963;50.934;4.668;2023-07-20T07:43:00;15.37;;;9.77;;
21601;SDS011;10963;50.934;4.668;2023-07-20T07:45:25;12.87;;;8.57;;
21601;SDS011;10963;50.934;4.668;2023-07-20T07:47:56;15.47;;;9.93;;
21601;SDS011;10963;50.934;4.668;2023-07-20T07:50:24;14.60;;;9.23;;
21601;SDS011;10963;50.934;4.668;2023-07-20T07:52:54;10.50;;;8.70;;
21601;SDS011;10963;50.934;4.668;2023-07-20T07:55:23;13.80;;;8.65;;
21601;SDS011;10963;50.934;4.668;2023-07-20T07:57:49;12.02;;;8.68;;
21601;SDS011;10963;50.934;4.668;2023-07-20T08:00:20;10.98;;;9.00;;
21601;SDS011;10963;50.934;4.668;2023-07-20T08:02:49;10.68;;;8.27;;
21601;SDS011;10963;50.934;4.668;2023-07-20T08:05:17;10.82;;;7.93;;
21601;SDS011;10963;50.934;4.668;2023-07-20T08:07:43;10.83;;;7.97;;
21601;SDS011;10963;50.934;4.668;2023-07-20T08:10:09;11.33;;;7.33;;
21601;SDS011;10963;50.934;4.668;2023-07-20T08:12:37;12.33;;;8.23;;
21601;SDS011;10963;50.934;4.668;2023-07-20T08:15:05;12.90;;;8.77;;
21601;SDS011;10963;50.934;4.668;2023-07-20T08:17:31;11.00;;;7.50;;
21601;SDS011;10963;50.934;4.668;2023-07-20T08:19:59;11.50;;;7.90;;
21601;SDS011;10963;50.934;4.668;2023-07-20T08:22:31;12.23;;;7.88;;
21601;SDS011;10963;50.934;4.668;2023-07-20T08:24:59;10.63;;;7.43;;
21601;SDS011;10963;50.934;4.668;2023-07-20T08:27:24;11.05;;;6.95;;
21601;SDS011;10963;50.934;4.668;2023-07-20T08:29:55;10.80;;;6.80;;
21601;SDS011;10963;50.934;4.668;2023-07-20T08:32:21;6.97;;;6.22;;
21601;SDS011;10963;50.934;4.668;2023-07-20T08:34:49;9.63;;;7.38;;
21601;SDS011;10963;50.934;4.668;2023-07-20T08:37:14;8.18;;;6.40;;
21601;SDS011;10963;50.934;4.668;2023-07-20T08:39:40;5.00;;;4.50;;
21601;SDS011;10963;50.934;4.668;2023-07-20T08:42:08;5.57;;;4.93;;
21601;SDS011;10963;50.934;4.668;2023-07-20T08:44:36;4.50;;;4.10;;
21601;SDS011;10963;50.934;4.668;2023-07-20T08:47:04;4.72;;;3.80;;
21601;SDS011;10963;50.934;4.668;2023-07-20T08:49:32;5.30;;;4.20;;
21601;SDS011;10963;50.934;4.668;2023-07-20T08:51:59;6.13;;;5.00;;
21601;SDS011;10963;50.934;4.668;2023-07-20T08:54:29;4.80;;;4.40;;
21601;SDS011;10963;50.934;4.668;2023-07-20T08:56:59;4.13;;;3.83;;
21601;SDS011;10963;50.934;4.668;2023-07-20T08:59:32;4.28;;;3.88;;
21601;SDS011;10963;50.934;4.668;2023-07-20T09:02:04;4.63;;;2.80;;
21601;SDS011;10963;50.934;4.668;2023-07-20T09:04:30;3.50;;;3.03;;
21601;SDS011;10963;50.934;4.668;2023-07-20T09:07:01;3.17;;;2.90;;
21601;SDS011;10963;50.934;4.668;2023-07-20T09:09:27;4.13;;;3.40;;
21601;SDS011;10963;50.934;4.668;2023-07-20T09:11:53;7.47;;;3.63;;
21601;SDS011;10963;50.934;4.668;2023-07-20T09:14:18;5.10;;;3.08;;
21601;SDS011;10963;50.934;4.668;2023-07-20T09:16:54;2.88;;;2.15;;
21601;SDS011;10963;50.934;4.668;2023-07-20T09:19:25;3.67;;;3.38;;
21601;SDS011;10963;50.934;4.668;2023-07-20T09:21:51;3.30;;;3.00;;
21601;SDS011;10963;50.934;4.668;2023-07-20T09:24:18;5.05;;;3.47;;
21601;SDS011;10963;50.934;4.668;2023-07-20T09:26:45;3.97;;;2.92;;
21601;SDS011;10963;50.934;4.668;2023-07-20T09:29:13;3.45;;;2.60;;
21601;SDS011;10963;50.934;4.668;2023-07-20T09:31:43;3.88;;;2.58;;
21601;SDS011;10963;50.934;4.668;2023-07-20T09:34:30;2.88;;;2.67;;
21601;SDS011;10963;50.934;4.668;2023-07-20T09:36:59;3.42;;;3.13;;
21601;SDS011;10963;50.934;4.668;2023-07-20T09:39:27;3.22;;;2.92;;
21601;SDS011;10963;50.934;4.668;2023-07-20T09:41:54;3.20;;;2.45;;
21601;SDS011;10963;50.934;4.668;2023-07-20T09:44:27;3.35;;;2.42;;
21601;SDS011;10963;50.934;4.668;2023-07-20T09:46:57;3.03;;;2.83;;
21601;SDS011;10963;50.934;4.668;2023-07-20T09:49:30;3.00;;;2.80;;
21601;SDS011;10963;50.934;4.668;2023-07-20T09:52:01;2.70;;;2.50;;
21601;SDS011;10963;50.934;4.668;2023-07-20T09:54:28;2.88;;;2.67;;
21601;SDS011;10963;50.934;4.668;2023-07-20T09:56:54;2.00;;;1.90;;
21601;SDS011;10963;50.934;4.668;2023-07-20T09:59:21;2.03;;;1.92;;
21601;SDS011;10963;50.934;4.668;2023-07-20T10:01:49;2.30;;;2.10;;
21601;SDS011;10963;50.934;4.668;2023-07-20T10:04:18;2.53;;;1.98;;
21601;SDS011;10963;50.934;4.668;2023-07-20T10:06:47;2.92;;;2.38;;
21601;SDS011;10963;50.934;4.668;2023-07-20T10:09:15;6.22;;;2.10;;
21601;SDS011;10963;50.934;4.668;2023-07-20T10:11:48;1.80;;;1.70;;
21601;SDS011;10963;50.934;4.668;2023-07-20T10:14:16;2.78;;;2.00;;
21601;SDS011;10963;50.934;4.668;2023-07-20T10:16:54;2.70;;;2.15;;
21601;SDS011;10963;50.934;4.668;2023-07-20T10:19:32;3.10;;;1.95;;
21601;SDS011;10963;50.934;4.668;2023-07-20T10:22:07;1.63;;;1.52;;
21601;SDS011;10963;50.934;4.668;2023-07-20T10:24:38;2.53;;;1.50;;
21601;SDS011;10963;50.934;4.668;2023-07-20T10:27:12;1.48;;;1.38;;
21601;SDS011;10963;50.934;4.668;2023-07-20T10:29:43;2.17;;;1.55;;
21601;SDS011;10963;50.934;4.668;2023-07-20T10:32:11;2.38;;;1.42;;
21601;SDS011;10963;50.934;4.668;2023-07-20T10:34:37;2.35;;;1.67;;
21601;SDS011;10963;50.934;4.668;2023-07-20T10:37:02;1.83;;;1.70;;
21601;SDS011;10963;50.934;4.668;2023-07-20T10:39:33;3.72;;;2.00;;
21601;SDS011;10963;50.934;4.668;2023-07-20T10:42:07;2.83;;;2.00;;
21601;SDS011;10963;50.934;4.668;2023-07-20T10:44:39;2.40;;;2.20;;
21601;SDS011;10963;50.934;4.668;2023-07-20T10:47:09;7.00;;;2.22;;
21601;SDS011;10963;50.934;4.668;2023-07-20T10:49:57;1.98;;;1.85;;
21601;SDS011;10963;50.934;4.668;2023-07-20T10:52:29;2.08;;;1.60;;
21601;SDS011;10963;50.934;4.668;2023-07-20T10:55:10;3.63;;;1.63;;
21601;SDS011;10963;50.934;4.668;2023-07-20T10:57:39;2.28;;;1.75;;
21601;SDS011;10963;50.934;4.668;2023-07-20T11:00:13;1.20;;;1.10;;
21601;SDS011;10963;50.934;4.668;2023-07-20T11:02:43;1.38;;;1.27;;
21601;SDS011;10963;50.934;4.668;2023-07-20T11:08:16;1.40;;;1.30;;
21601;SDS011;10963;50.934;4.668;2023-07-20T11:11:22;1.50;;;1.40;;
21601;SDS011;10963;50.934;4.668;2023-07-20T11:14:01;1.23;;;1.08;;
21601;SDS011;10963;50.934;4.668;2023-07-20T11:16:48;1.67;;;1.58;;
21601;SDS011;10963;50.934;4.668;2023-07-20T11:19:19;1.85;;;1.73;;
21601;SDS011;10963;50.934;4.668;2023-07-20T11:21:50;1.15;;;1.15;;
21601;SDS011;10963;50.934;4.668;2023-07-20T11:24:16;2.35;;;1.42;;
21601;SDS011;10963;50.934;4.668;2023-07-20T11:26:46;1.50;;;1.40;;
21601;SDS011;10963;50.934;4.668;2023-07-20T11:29:16;3.47;;;1.40;;
21601;SDS011;10963;50.934;4.668;2023-07-20T11:31:46;2.50;;;1.30;;
21601;SDS011;10963;50.934;4.668;2023-07-20T11:34:14;2.47;;;1.35;;
21601;SDS011;10963;50.934;4.668;2023-07-20T11:36:45;1.35;;;1.00;;
21601;SDS011;10963;50.934;4.668;2023-07-20T11:39:18;1.23;;;1.13;;
21601;SDS011;10963;50.934;4.668;2023-07-20T11:41:50;1.20;;;1.05;;
21601;SDS011;10963;50.934;4.668;2023-07-20T11:44:17;1.58;;;1.23;;
21601;SDS011;10963;50.934;4.668;2023-07-20T11:46:44;1.30;;;1.20;;
21601;SDS011;10963;50.934;4.668;2023-07-20T11:49:12;1.27;;;1.02;;
21601;SDS011;10963;50.934;4.668;2023-07-20T11:51:39;1.40;;;1.30;;
21601;SDS011;10963;50.934;4.668;2023-07-20T11:54:10;3.95;;;1.30;;
21601;SDS011;10963;50.934;4.668;2023-07-20T11:56:38;1.02;;;1.02;;
21601;SDS011;10963;50.934;4.668;2023-07-20T11:59:11;1.52;;;1.10;;
21601;SDS011;10963;50.934;4.668;2023-07-20T12:01:37;1.42;;;1.30;;
21601;SDS011;10963;50.934;4.668;2023-07-20T12:04:02;1.75;;;1.25;;
21601;SDS011;10963;50.934;4.668;2023-07-20T12:06:29;1.40;;;1.27;;
21601;SDS011;10963;50.934;4.668;2023-07-20T12:09:01;1.30;;;1.20;;
21601;SDS011;10963;50.934;4.668;2023-07-20T12:11:36;1.60;;;1.40;;
21601;SDS011;10963;50.934;4.668;2023-07-20T12:14:06;1.27;;;1.17;;
21601;SDS011;10963;50.934;4.668;2023-07-20T12:16:33;2.78;;;1.20;;
21601;SDS011;10963;50.934;4.668;2023-07-20T12:19:04;1.73;;;1.23;;
21601;SDS011;10963;50.934;4.668;2023-07-20T12:21:33;1.00;;;1.00;;
21601;SDS011;10963;50.934;4.668;2023-07-20T12:24:03;2.55;;;1.40;;
21601;SDS011;10963;50.934;4.668;2023-07-20T12:26:33;3.13;;;1.20;;
21601;SDS011;10963;50.934;4.668;2023-07-20T12:28:59;1.30;;;1.20;;
21601;SDS011;10963;50.934;4.668;2023-07-20T12:31:28;3.08;;;1.83;;
21601;SDS011;10963;50.934;4.668;2023-07-20T12:34:01;1.75;;;1.27;;
21601;SDS011;10963;50.934;4.668;2023-07-20T12:36:27;1.58;;;1.30;;
21601;SDS011;10963;50.934;4.668;2023-07-20T12:38:56;2.83;;;1.40;;
21601;SDS011;10963;50.934;4.668;2023-07-20T12:41:21;3.03;;;1.38;;
21601;SDS011;10963;50.934;4.668;2023-07-20T12:43:49;1.58;;;1.38;;
21601;SDS011;10963;50.934;4.668;2023-07-20T12:46:15;1.40;;;1.30;;
21601;SDS011;10963;50.934;4.668;2023-07-20T12:48:41;2.58;;;1.77;;
21601;SDS011;10963;50.934;4.668;2023-07-20T12:51:08;1.50;;;1.30;;
21601;SDS011;10963;50.934;4.668;2023-07-20T12:53:39;2.25;;;1.45;;
21601;SDS011;10963;50.934;4.668;2023-07-20T12:56:05;1.73;;;1.45;;
21601;SDS011;10963;50.934;4.668;2023-07-20T12:58:31;1.30;;;1.20;;
21601;SDS011;10963;50.934;4.668;2023-07-20T13:00:57;1.30;;;1.20;;
21601;SDS011;10963;50.934;4.668;2023-07-20T13:03:23;2.45;;;1.60;;
21601;SDS011;10963;50.934;4.668;2023-07-20T13:05:51;1.50;;;1.40;;
21601;SDS011;10963;50.934;4.668;2023-07-20T13:08:19;1.65;;;1.55;;
21601;SDS011;10963;50.934;4.668;2023-07-20T13:10:52;2.45;;;1.50;;
21601;SDS011;10963;50.934;4.668;2023-07-20T13:13:18;1.48;;;1.38;;
21601;SDS011;10963;50.934;4.668;2023-07-20T13:15:44;1.60;;;1.50;;
21601;SDS011;10963;50.934;4.668;2023-07-20T13:18:11;1.60;;;1.50;;
21601;SDS011;10963;50.934;4.668;2023-07-20T13:20:37;1.83;;;1.30;;
21601;SDS011;10963;50.934;4.668;2023-07-20T13:23:05;2.05;;;1.35;;
21601;SDS011;10963;50.934;4.668;2023-07-20T13:25:33;1.40;;;1.27;;
21601;SDS011;10963;50.934;4.668;2023-07-20T13:28:04;1.60;;;1.35;;
21601;SDS011;10963;50.934;4.668;2023-07-20T13:30:30;2.47;;;1.33;;
21601;SDS011;10963;50.934;4.668;2023-07-20T13:32:55;1.77;;;1.25;;
21601;SDS011;10963;50.934;4.668;2023-07-20T13:35:22;2.30;;;1.48;;
21601;SDS011;10963;50.934;4.668;2023-07-20T13:37:50;1.55;;;1.45;;
21601;SDS011;10963;50.934;4.668;2023-07-20T13:40:18;1.75;;;1.65;;
21601;SDS011;10963;50.934;4.668;2023-07-20T13:42:44;1.60;;;1.50;;
21601;SDS011;10963;50.934;4.668;2023-07-20T13:45:12;3.55;;;1.50;;
21601;SDS011;10963;50.934;4.668;2023-07-20T13:47:38;2.17;;;1.52;;
21601;SDS011;10963;50.934;4.668;2023-07-20T13:50:04;6.13;;;1.50;;
21601;SDS011;10963;50.934;4.668;2023-07-20T13:52:30;1.65;;;1.52;;
21601;SDS011;10963;50.934;4.668;2023-07-20T13:54:56;3.65;;;1.60;;
21601;SDS011;10963;50.934;4.668;2023-07-20T13:57:22;6.07;;;1.80;;
21601;SDS011;10963;50.934;4.668;2023-07-20T13:59:47;1.63;;;1.52;;
21601;SDS011;10963;50.934;4.668;2023-07-20T14:02:14;1.75;;;1.65;;
21601;SDS011;10963;50.934;4.668;2023-07-20T14:04:44;2.65;;;1.45;;
21601;SDS011;10963;50.934;4.668;2023-07-20T14:07:13;1.90;;;1.80;;
21601;SDS011;10963;50.934;4.668;2023-07-20T14:09:43;4.73;;;1.60;;
21601;SDS011;10963;50.934;4.668;2023-07-20T14:12:11;2.50;;;1.73;;
21601;SDS011;10963;50.934;4.668;2023-07-20T14:14:42;1.63;;;1.53;;
21601;SDS011;10963;50.934;4.668;2023-07-20T14:17:08;1.87;;;1.70;;
21601;SDS011;10963;50.934;4.668;2023-07-20T14:19:34;1.77;;;1.67;;
21601;SDS011;10963;50.934;4.668;2023-07-20T14:22:01;2.33;;;2.13;;
21601;SDS011;10963;50.934;4.668;2023-07-20T14:24:28;1.93;;;1.83;;
21601;SDS011;10963;50.934;4.668;2023-07-20T14:26:54;2.07;;;1.97;;
21601;SDS011;10963;50.934;4.668;2023-07-20T14:29:20;4.03;;;2.57;;
21601;SDS011;10963;50.934;4.668;2023-07-20T14:31:46;2.43;;;2.23;;
21601;SDS011;10963;50.934;4.668;2023-07-20T14:34:18;5.47;;;2.50;;
21601;SDS011;10963;50.934;4.668;2023-07-20T14:36:44;2.43;;;2.23;;
21601;SDS011;10963;50.934;4.668;2023-07-20T14:39:13;2.30;;;1.93;;
21601;SDS011;10963;50.934;4.668;2023-07-20T14:41:46;3.70;;;2.50;;
21601;SDS011;10963;50.934;4.668;2023-07-20T14:44:15;3.30;;;2.43;;
21601;SDS011;10963;50.934;4.668;2023-07-20T14:46:41;3.97;;;2.80;;
21601;SDS011;10963;50.934;4.668;2023-07-20T14:49:07;4.83;;;2.00;;
21601;SDS011;10963;50.934;4.668;2023-07-20T14:51:33;2.30;;;2.20;;
21601;SDS011;10963;50.934;4.668;2023-07-20T14:54:01;2.60;;;2.40;;
21601;SDS011;10963;50.934;4.668;2023-07-20T14:56:27;2.83;;;2.53;;
21601;SDS011;10963;50.934;4.668;2023-07-20T14:58:57;3.03;;;2.40;;
21601;SDS011;10963;50.934;4.668;2023-07-20T15:01:25;2.63;;;2.43;;